TFM - Tactical Decision Aid (Experimental) INFO Settings
ID: Runway Winds: CIG/VIS Threshold: METAR Board: Map:

Katl - Atlanta-Hartsfield Jackson Intl

Updated at: 0307 UTC 30 Jun 2016
Latest TAF at: 0147 UTC 30 Jun 2016

TAF Board

Time0252Z30/04Z30/05Z30/06Z30/07Z30/08Z30/09Z30/10Z30/11Z30/12Z30/13Z30/14Z30/15Z30/16Z
TypeOBSPRVLPRVLPRVLPRVLPRVLPRVLPRVLPRVLPRVLPRVLPRVLPRVLPRVL
VIS10>6>6>6>6>6>6>6>6>6>6>6>6>6
CIG--5050505050----------------
CoverSCTBKNBKNBKNBKNBKNSCTSCTSCTSCTSCTSCTSCTSCT
FltCatVFRVFRVFRVFRVFRVFRVFRVFRVFRVFRVFRVFRVFRVFR
WX----------------------------
WDir180330330330330330340340340340340240240240
WSpd64444444444666
WGst----------------------------
TAF
KATL 300147Z 3002/0106 16007KT P6SM FEW070
  FM300400 33004KT P6SM BKN050
  FM300900 34004KT P6SM SCT050
  FM301400 24006KT P6SM SCT050
  PROB30 3019/3023 VRB10G18KT 3SM TSRA BKN025CB
  FM010100 23005KT P6SM SCT250


METAR
KATL 300252Z 18006KT 10SM FEW070 SCT110 SCT250 27/22 A2998 RMK AO2 SLP138 OCNL LTG DSNT NE / SW T02720217 53014
KATL 300152Z 00000KT 10SM FEW070 FEW250 29/17 A2995 RMK AO2 SLP130 CONS LTG DSNT NE T02940172

TAF/METAR Board Legend

Potential Impact
  None Marginal Slight Moderate High
Visibility (sm) > ≤X≤ <
Ceiling (100 ft) > ≤X≤ <
Wind Speed (kt) <10 10≤X<20 20≤X<30 ≥30
Wind Gust (kt) <15 15≤X<25 25≤X<35 ≥35
Weather No Wx Reported VCTS -TS,-FZRA TS,FZRA +TS,+FZRA